Time;durP1;ratioP1;P1;durP2;ratioP2;P2;SDS_P1;SDS_P2;PMS_P1;PMS_P2;Temp;Humidity;BMP_temperature;BMP_pressure;BME280_temperature;BME280_humidity;BME280_pressure;Samples;Min_cycle;Max_cycle;Signal;HPM_P1;HPM_P2
2022/12/07 00:01:19;;;;;;;42.97;22.00;;;1.10;86.70;;;;;;5074392;28;20060;-12
2022/12/07 00:03:46;;;;;;;41.20;21.60;;;1.10;86.60;;;;;;5074581;28;20458;-15
2022/12/07 00:06:14;;;;;;;45.83;22.20;;;1.00;86.60;;;;;;5075032;28;20392;-15
2022/12/07 00:08:40;;;;;;;41.90;21.27;;;1.00;86.60;;;;;;5074757;28;20029;-14
2022/12/07 00:11:12;;;;;;;38.28;20.80;;;0.90;86.60;;;;;;5074076;28;20040;-15
2022/12/07 00:13:39;;;;;;;38.75;20.75;;;0.90;86.70;;;;;;5074802;28;20052;-15
2022/12/07 00:16:19;;;;;;;38.08;20.85;;;0.80;86.70;;;;;;5074330;28;20032;-16
2022/12/07 00:18:45;;;;;;;38.95;20.38;;;0.80;86.80;;;;;;5074360;28;20024;-13
2022/12/07 00:21:20;;;;;;;33.38;18.50;;;0.80;86.80;;;;;;5056514;28;20073;-14
2022/12/07 00:23:47;;;;;;;34.92;18.52;;;0.80;86.80;;;;;;5074157;28;20388;-15
2022/12/07 00:26:20;;;;;;;27.38;17.42;;;0.80;86.90;;;;;;5074354;28;20033;-13
2022/12/07 00:28:54;;;;;;;34.80;18.58;;;0.80;86.80;;;;;;5073551;28;20033;-16
2022/12/07 00:31:24;;;;;;;29.35;17.80;;;0.80;86.80;;;;;;5073968;28;20020;-14
2022/12/07 00:33:50;;;;;;;35.00;18.58;;;0.90;86.70;;;;;;5073804;28;20479;-15
2022/12/07 00:36:20;;;;;;;43.42;18.85;;;0.80;86.70;;;;;;5073721;28;20017;-13
2022/12/07 00:38:46;;;;;;;37.88;17.75;;;0.90;86.80;;;;;;5073893;28;20029;-13
2022/12/07 00:41:20;;;;;;;35.53;18.42;;;0.90;86.80;;;;;;5073651;28;20063;-11
2022/12/07 00:43:48;;;;;;;39.47;20.17;;;0.90;86.70;;;;;;5073982;28;20021;-15
2022/12/07 00:46:14;;;;;;;30.20;16.52;;;0.90;86.70;;;;;;5074292;28;20040;-15
2022/12/07 00:48:40;;;;;;;31.20;16.25;;;0.90;86.60;;;;;;5074287;28;20024;-13
2022/12/07 00:51:07;;;;;;;33.22;18.55;;;0.90;86.50;;;;;;5072973;28;20048;-14
2022/12/07 00:53:37;;;;;;;34.95;18.55;;;0.90;86.60;;;;;;5073434;28;20020;-16
2022/12/07 00:56:29;;;;;;;33.70;17.42;;;0.90;86.60;;;;;;5073768;28;20028;-17
2022/12/07 00:59:03;;;;;;;40.00;18.98;;;0.90;86.50;;;;;;5073391;28;20024;-14
2022/12/07 01:01:31;;;;;;;38.90;18.75;;;0.90;86.40;;;;;;5073424;28;20129;-16
2022/12/07 01:03:58;;;;;;;35.88;18.30;;;0.80;86.40;;;;;;5073321;28;20361;-16
2022/12/07 01:06:25;;;;;;;28.52;16.58;;;0.70;86.40;;;;;;5073471;28;20032;-17
2022/12/07 01:08:51;;;;;;;31.55;17.27;;;0.70;86.40;;;;;;5073308;28;20024;-17
2022/12/07 01:11:20;;;;;;;29.90;17.10;;;0.60;86.40;;;;;;5073358;28;20033;-15
2022/12/07 01:13:46;;;;;;;37.90;18.20;;;0.60;86.40;;;;;;5073127;28;20016;-15
2022/12/07 01:16:14;;;;;;;35.88;18.02;;;0.50;86.50;;;;;;5073360;28;20029;-15
2022/12/07 01:18:40;;;;;;;35.10;17.05;;;0.40;86.50;;;;;;5072933;28;20028;-15
2022/12/07 01:21:15;;;;;;;31.58;16.83;;;0.30;86.60;;;;;;5072962;28;20027;-14
2022/12/07 01:23:41;;;;;;;33.83;18.45;;;0.30;86.70;;;;;;5072895;28;20036;-16
2022/12/07 01:26:12;;;;;;;29.63;18.10;;;0.20;86.70;;;;;;5072883;28;20024;-14
2022/12/07 01:28:38;;;;;;;31.88;19.02;;;0.20;86.70;;;;;;5073053;28;20119;-13
2022/12/07 01:31:14;;;;;;;28.00;16.20;;;0.10;86.80;;;;;;5054769;28;20047;-13
2022/12/07 01:33:42;;;;;;;30.85;18.25;;;0.10;86.90;;;;;;5073732;28;20071;-16
2022/12/07 01:36:17;;;;;;;26.17;16.77;;;0.10;87.00;;;;;;5072690;28;20430;-15
2022/12/07 01:38:45;;;;;;;32.13;17.30;;;0.10;87.10;;;;;;5072795;28;20539;-17
2022/12/07 01:41:12;;;;;;;32.28;18.58;;;0.10;87.10;;;;;;5072994;28;20103;-16
2022/12/07 01:44:12;;;;;;;29.92;17.08;;;0.10;87.10;;;;;;5072731;28;20016;-16
2022/12/07 01:46:38;;;;;;;33.25;19.10;;;0.10;87.10;;;;;;5073034;28;20028;-17
2022/12/07 01:49:08;;;;;;;29.73;17.88;;;0.10;87.10;;;;;;5072487;28;20070;-15
2022/12/07 01:51:36;;;;;;;27.67;17.23;;;0.10;87.10;;;;;;5072618;28;20373;-17
2022/12/07 01:54:02;;;;;;;30.23;17.73;;;0.10;87.20;;;;;;5072768;28;20039;-17
2022/12/07 01:56:29;;;;;;;31.15;18.58;;;0.10;87.20;;;;;;5072587;28;20033;-15
2022/12/07 01:58:56;;;;;;;31.05;16.85;;;0.10;87.20;;;;;;5054732;28;20119;-16
2022/12/07 02:01:22;;;;;;;32.92;17.90;;;0.10;87.20;;;;;;5072995;28;20403;-16
2022/12/07 02:03:49;;;;;;;33.97;18.83;;;0.10;87.20;;;;;;5072910;28;20024;-16
2022/12/07 02:06:20;;;;;;;32.05;18.42;;;0.10;87.10;;;;;;5054568;28;20480;-15
2022/12/07 02:08:47;;;;;;;32.97;18.20;;;0.10;87.10;;;;;;5073049;28;20025;-23
2022/12/07 02:11:13;;;;;;;29.50;17.20;;;0.10;87.20;;;;;;5054323;28;20043;-16
2022/12/07 02:13:42;;;;;;;31.63;18.40;;;0.10;87.20;;;;;;5072735;28;20025;-14
2022/12/07 02:16:34;;;;;;;32.47;18.90;;;0.10;87.30;;;;;;5072454;28;20020;-13
2022/12/07 02:19:35;;;;;;;28.95;15.27;;;0.20;87.30;;;;;;5072228;28;20060;-15
2022/12/07 02:22:29;;;;;;;28.38;16.45;;;0.20;87.30;;;;;;5072326;28;20112;-16
2022/12/07 02:25:13;;;;;;;23.83;14.93;;;0.20;87.30;;;;;;5071680;28;20037;-14
2022/12/07 02:27:56;;;;;;;37.70;19.55;;;0.30;87.20;;;;;;5072482;28;20128;-16
2022/12/07 02:30:28;;;;;;;29.90;17.65;;;0.30;87.10;;;;;;5072626;28;20028;-17
2022/12/07 02:33:18;;;;;;;27.63;17.38;;;0.30;87.10;;;;;;5072041;28;20043;-17
2022/12/07 02:36:08;;;;;;;25.15;16.02;;;0.30;87.10;;;;;;5072249;28;20055;-14
2022/12/07 02:39:07;;;;;;;24.17;15.32;;;0.30;87.00;;;;;;5072393;28;20020;-16
2022/12/07 02:41:43;;;;;;;26.83;15.18;;;0.30;87.10;;;;;;5072521;28;20025;-18
2022/12/07 02:44:13;;;;;;;25.88;15.80;;;0.40;87.00;;;;;;5072194;28;20029;-17
2022/12/07 02:46:59;;;;;;;23.27;14.15;;;0.40;86.90;;;;;;5072451;28;20107;-16
2022/12/07 02:49:27;;;;;;;23.98;15.35;;;0.40;87.00;;;;;;5072511;28;20052;-16
2022/12/07 02:51:53;;;;;;;23.33;14.75;;;0.40;86.90;;;;;;5074807;28;20139;-17
2022/12/07 02:54:22;;;;;;;24.95;15.20;;;0.40;86.90;;;;;;5076209;28;20032;-17
2022/12/07 02:57:03;;;;;;;26.02;14.60;;;0.40;86.90;;;;;;5075635;28;20104;-15
2022/12/07 02:59:47;;;;;;;25.48;14.40;;;0.40;86.90;;;;;;5075692;28;20055;-15
2022/12/07 03:02:28;;;;;;;23.05;13.90;;;0.40;86.90;;;;;;5075771;28;20036;-16
2022/12/07 03:05:12;;;;;;;24.90;14.30;;;0.40;86.90;;;;;;5057677;28;20024;-17
2022/12/07 03:07:57;;;;;;;25.02;14.38;;;0.30;86.90;;;;;;5075575;28;20108;-16
2022/12/07 03:10:28;;;;;;;25.83;14.32;;;0.30;86.90;;;;;;5075459;28;20036;-16
2022/12/07 03:13:07;;;;;;;22.70;13.57;;;0.30;86.90;;;;;;5075337;28;20027;-16
2022/12/07 03:15:58;;;;;;;24.67;13.93;;;0.30;86.90;;;;;;5075523;28;20033;-17
2022/12/07 03:18:27;;;;;;;23.15;13.95;;;0.30;87.00;;;;;;5075574;28;20542;-16
2022/12/07 03:20:58;;;;;;;25.42;13.60;;;0.30;87.00;;;;;;5057208;28;20025;-17
2022/12/07 03:23:26;;;;;;;25.25;14.30;;;0.30;87.00;;;;;;5058001;28;20025;-17
2022/12/07 03:25:58;;;;;;;29.00;15.73;;;0.30;87.00;;;;;;5057467;28;20539;-16
2022/12/07 03:28:29;;;;;;;32.85;16.83;;;0.20;87.00;;;;;;5057419;28;20162;-16
2022/12/07 03:31:35;;;;;;;27.75;14.98;;;0.20;87.00;;;;;;5075073;28;20033;-14
2022/12/07 03:34:03;;;;;;;25.88;14.45;;;0.20;87.00;;;;;;4974598;28;20517;-16
2022/12/07 03:36:38;;;;;;;26.50;13.93;;;0.20;87.10;;;;;;4974555;28;20128;-16
2022/12/07 03:39:24;;;;;;;26.20;15.07;;;0.10;87.10;;;;;;4974045;28;20555;-15
2022/12/07 03:41:50;;;;;;;24.33;14.05;;;0.10;87.10;;;;;;4974829;28;20077;-17
2022/12/07 03:44:17;;;;;;;25.77;14.95;;;0.10;87.20;;;;;;4974638;28;20023;-16
2022/12/07 03:47:01;;;;;;;24.90;14.45;;;0.10;87.30;;;;;;4974200;28;20510;-16
2022/12/07 03:49:37;;;;;;;27.35;15.23;;;0.10;87.30;;;;;;4974259;28;20530;-13
2022/12/07 03:52:02;;;;;;;25.90;15.15;;;0.20;87.40;;;;;;4973643;28;20618;-15
2022/12/07 03:54:34;;;;;;;29.73;15.95;;;0.20;87.40;;;;;;4974025;28;20207;-14
2022/12/07 03:57:02;;;;;;;27.27;15.40;;;0.20;87.40;;;;;;4973761;28;20549;-17
2022/12/07 03:59:29;;;;;;;23.95;15.05;;;0.30;87.40;;;;;;4973986;28;20187;-17
2022/12/07 04:02:01;;;;;;;26.38;15.07;;;0.30;87.40;;;;;;4973591;28;20027;-18
2022/12/07 04:04:27;;;;;;;28.13;16.23;;;0.30;87.30;;;;;;4973817;28;20486;-17
2022/12/07 04:06:53;;;;;;;29.92;15.50;;;0.30;87.30;;;;;;4982149;28;20027;-16
2022/12/07 04:09:20;;;;;;;27.98;15.63;;;0.30;87.30;;;;;;5074885;28;20028;-15
2022/12/07 04:11:46;;;;;;;28.40;16.25;;;0.30;87.30;;;;;;5074370;28;20033;-15
2022/12/07 04:14:18;;;;;;;27.60;15.48;;;0.30;87.40;;;;;;5074303;28;20397;-17
2022/12/07 04:16:48;;;;;;;27.75;15.65;;;0.20;87.30;;;;;;5074308;28;20028;-16
2022/12/07 04:19:14;;;;;;;28.48;14.98;;;0.20;87.30;;;;;;5074259;28;20035;-18
2022/12/07 04:21:40;;;;;;;28.95;15.73;;;0.30;87.30;;;;;;5074790;28;20044;-16
2022/12/07 04:24:06;;;;;;;28.48;16.40;;;0.20;87.30;;;;;;5074717;28;20068;-17
2022/12/07 04:26:33;;;;;;;29.27;16.55;;;0.20;87.30;;;;;;5074142;28;20562;-15
2022/12/07 04:28:59;;;;;;;19.08;11.95;;;0.20;87.40;;;;;;5055965;28;20390;-17
2022/12/07 04:31:25;;;;;;;22.85;13.02;;;0.20;87.40;;;;;;5073954;28;20500;-18
2022/12/07 04:33:51;;;;;;;23.92;13.85;;;0.30;87.40;;;;;;5056606;28;20035;-16
2022/12/07 04:36:19;;;;;;;28.95;16.38;;;0.30;87.40;;;;;;5073794;28;20479;-16
2022/12/07 04:38:45;;;;;;;24.55;14.95;;;0.30;87.40;;;;;;5073874;28;20036;-17
2022/12/07 04:41:11;;;;;;;25.35;14.73;;;0.30;87.40;;;;;;5073776;28;20603;-19
2022/12/07 04:43:37;;;;;;;26.13;16.02;;;0.30;87.30;;;;;;5056213;28;20111;-18
2022/12/07 04:46:04;;;;;;;29.42;16.23;;;0.20;87.20;;;;;;5074031;28;20463;-17
2022/12/07 04:48:30;;;;;;;28.38;15.48;;;0.20;87.20;;;;;;5073817;28;20036;-18
2022/12/07 04:50:56;;;;;;;26.85;15.25;;;0.30;87.30;;;;;;5073364;28;20098;-16
2022/12/07 04:53:22;;;;;;;26.48;15.23;;;0.30;87.40;;;;;;5073764;28;20070;-18
2022/12/07 04:55:48;;;;;;;25.67;15.38;;;0.20;87.30;;;;;;5073552;28;20075;-18
2022/12/07 04:58:14;;;;;;;23.85;13.02;;;0.10;87.30;;;;;;5073475;28;20052;-17
2022/12/07 05:00:40;;;;;;;23.10;13.82;;;0.20;87.30;;;;;;5073443;28;20024;-17
2022/12/07 05:03:07;;;;;;;23.80;14.80;;;0.20;87.30;;;;;;5073329;28;20395;-17
2022/12/07 05:05:33;;;;;;;24.85;14.00;;;0.20;87.30;;;;;;5073647;28;20047;-17
2022/12/07 05:07:59;;;;;;;21.63;13.95;;;0.20;87.30;;;;;;5055342;28;20442;-17
2022/12/07 05:10:25;;;;;;;29.77;16.35;;;0.20;87.30;;;;;;5073111;28;20032;-18
2022/12/07 05:12:51;;;;;;;24.40;14.48;;;0.20;87.20;;;;;;5055405;28;20028;-17
2022/12/07 05:15:17;;;;;;;23.67;14.60;;;0.10;87.20;;;;;;5054234;28;20365;-16
2022/12/07 05:17:43;;;;;;;26.50;15.95;;;0.10;87.10;;;;;;5055281;28;20045;-17
2022/12/07 05:20:10;;;;;;;28.98;16.58;;;0.00;87.10;;;;;;5073633;28;20028;-18
2022/12/07 05:22:36;;;;;;;25.50;14.60;;;0.00;87.20;;;;;;5055116;28;20027;-18
2022/12/07 05:25:02;;;;;;;26.45;15.32;;;0.00;87.30;;;;;;5072810;28;20024;-16
2022/12/07 05:27:28;;;;;;;25.73;15.27;;;0.00;87.30;;;;;;5073024;28;20037;-16
2022/12/07 05:29:53;;;;;;;24.40;14.95;;;0.00;87.30;;;;;;5072850;28;20021;-16
2022/12/07 05:32:19;;;;;;;27.33;14.40;;;0.00;87.30;;;;;;5072925;28;20029;-17
2022/12/07 05:34:46;;;;;;;25.85;14.38;;;0.00;87.40;;;;;;5072973;28;20028;-17
2022/12/07 05:37:12;;;;;;;27.23;15.68;;;0.00;87.40;;;;;;5072683;28;20033;-16
2022/12/07 05:39:40;;;;;;;25.13;15.43;;;0.00;87.40;;;;;;5072883;28;20032;-17
2022/12/07 05:42:12;;;;;;;26.27;15.60;;;0.00;87.40;;;;;;5073074;28;20031;-15
2022/12/07 05:44:43;;;;;;;29.52;15.90;;;0.00;87.50;;;;;;5072806;28;20359;-18
2022/12/07 05:47:10;;;;;;;28.83;15.55;;;0.00;87.50;;;;;;5072842;28;20035;-17
2022/12/07 05:49:36;;;;;;;28.30;15.93;;;0.00;87.50;;;;;;5072673;28;20032;-16
2022/12/07 05:52:03;;;;;;;25.60;16.02;;;0.00;87.50;;;;;;5072355;28;20075;-16
2022/12/07 05:54:30;;;;;;;30.02;15.80;;;0.00;87.50;;;;;;5054756;28;20029;-17
2022/12/07 05:56:56;;;;;;;33.30;16.67;;;0.00;87.40;;;;;;5072666;28;20035;-17
2022/12/07 05:59:24;;;;;;;32.72;16.77;;;0.00;87.40;;;;;;5072812;28;20029;-16
2022/12/07 06:02:02;;;;;;;31.20;16.42;;;0.00;87.50;;;;;;5072777;28;20017;-15
2022/12/07 06:04:32;;;;;;;31.02;17.15;;;0.00;87.60;;;;;;5072829;28;20048;-18
2022/12/07 06:06:58;;;;;;;30.40;16.80;;;0.00;87.60;;;;;;5072415;28;20063;-17
2022/12/07 06:09:26;;;;;;;26.90;16.17;;;0.00;87.50;;;;;;5072506;28;20036;-16
2022/12/07 06:14:37;;;;;;;29.35;15.80;;;0.00;87.40;;;;;;5073238;28;20132;-16
2022/12/07 06:17:04;;;;;;;30.13;17.42;;;0.00;87.40;;;;;;5072154;28;20052;-16
2022/12/07 06:19:30;;;;;;;33.67;17.15;;;0.00;87.40;;;;;;5054528;28;20028;-16
2022/12/07 06:21:57;;;;;;;34.17;18.80;;;0.00;87.60;;;;;;5054331;28;20073;-18
2022/12/07 06:24:23;;;;;;;38.83;19.75;;;0.00;87.70;;;;;;5072309;28;20036;-18
2022/12/07 06:26:49;;;;;;;29.10;16.02;;;0.00;87.70;;;;;;5076225;28;20033;-17
2022/12/07 06:29:16;;;;;;;31.25;17.48;;;0.00;87.70;;;;;;5076448;28;20043;-17
2022/12/07 06:31:41;;;;;;;29.83;17.63;;;0.00;87.70;;;;;;5076283;28;20471;-17
2022/12/07 06:34:12;;;;;;;37.83;18.88;;;0.00;87.70;;;;;;5076228;28;20044;-17
2022/12/07 06:36:38;;;;;;;33.58;19.08;;;0.00;87.70;;;;;;5076584;28;20486;-15
2022/12/07 06:39:05;;;;;;;38.65;20.35;;;0.00;87.60;;;;;;5076401;28;20036;-17
2022/12/07 06:41:31;;;;;;;27.20;17.27;;;0.00;87.60;;;;;;5076188;28;20380;-18
2022/12/07 06:43:57;;;;;;;33.00;17.27;;;0.00;87.50;;;;;;5076500;28;20039;-18
2022/12/07 06:46:23;;;;;;;26.98;15.57;;;0.00;87.50;;;;;;5076147;28;20060;-16
2022/12/07 06:48:49;;;;;;;32.42;18.15;;;0.00;87.60;;;;;;5076014;28;20097;-17
2022/12/07 06:51:16;;;;;;;31.42;16.85;;;0.00;87.70;;;;;;5075733;28;20439;-18
2022/12/07 06:53:42;;;;;;;18.40;11.88;;;0.10;87.70;;;;;;5058086;28;20107;-16
2022/12/07 06:56:08;;;;;;;26.42;14.25;;;0.10;87.70;;;;;;5076031;28;20079;-16
2022/12/07 06:58:34;;;;;;;30.85;16.95;;;0.10;87.70;;;;;;5075783;28;20024;-18
2022/12/07 07:01:00;;;;;;;25.27;14.50;;;0.10;87.70;;;;;;5076129;28;20023;-16
2022/12/07 07:03:26;;;;;;;26.98;15.27;;;0.10;87.60;;;;;;5075926;28;20056;-17
2022/12/07 07:05:52;;;;;;;31.90;17.83;;;0.10;87.60;;;;;;5075965;28;20032;-17
2022/12/07 07:08:18;;;;;;;36.80;19.58;;;0.10;87.60;;;;;;5075734;28;20139;-16
2022/12/07 07:10:44;;;;;;;27.05;15.30;;;0.20;87.60;;;;;;5075904;28;20050;-17
2022/12/07 07:13:10;;;;;;;32.38;16.05;;;0.30;87.60;;;;;;5075875;28;20041;-18
2022/12/07 07:15:38;;;;;;;20.52;12.50;;;0.30;87.60;;;;;;5075799;28;20173;-16
2022/12/07 07:18:04;;;;;;;22.80;13.35;;;0.30;87.70;;;;;;5076050;28;20033;-17
2022/12/07 07:20:31;;;;;;;36.30;18.58;;;0.40;87.70;;;;;;5075668;28;20125;-16
2022/12/07 07:22:57;;;;;;;29.75;16.50;;;0.40;87.60;;;;;;5075145;28;20078;-18
2022/12/07 07:25:22;;;;;;;27.02;15.45;;;0.40;87.60;;;;;;5075337;28;20059;-18
2022/12/07 07:27:48;;;;;;;41.78;20.85;;;0.50;87.60;;;;;;5075208;28;20376;-18
2022/12/07 07:30:15;;;;;;;30.92;17.63;;;0.50;87.60;;;;;;5075588;28;20048;-16
2022/12/07 07:32:40;;;;;;;27.42;16.13;;;0.60;87.60;;;;;;5075240;28;20044;-18
2022/12/07 07:35:06;;;;;;;39.92;20.35;;;0.60;87.60;;;;;;5074947;28;20021;-17
2022/12/07 07:37:32;;;;;;;32.60;17.13;;;0.70;87.60;;;;;;5074229;28;20033;-17
2022/12/07 07:39:58;;;;;;;32.45;17.90;;;0.80;87.40;;;;;;5075006;28;20396;-18
2022/12/07 07:42:24;;;;;;;43.30;23.05;;;0.80;87.40;;;;;;5075237;28;20448;-17
2022/12/07 07:44:50;;;;;;;32.88;18.88;;;0.90;87.30;;;;;;5074717;28;20547;-16
2022/12/07 07:47:16;;;;;;;32.75;17.92;;;0.90;87.30;;;;;;5075107;28;20020;-16
2022/12/07 07:49:42;;;;;;;33.85;19.40;;;0.90;87.20;;;;;;5075160;28;20106;-18
2022/12/07 07:52:08;;;;;;;32.20;18.92;;;0.90;87.10;;;;;;5074501;28;20488;-16
2022/12/07 07:54:34;;;;;;;37.15;20.25;;;0.90;87.10;;;;;;5074973;28;20028;-17
2022/12/07 07:57:00;;;;;;;33.30;18.35;;;1.00;87.20;;;;;;5056761;28;20097;-18
2022/12/07 07:59:26;;;;;;;36.75;19.98;;;1.10;87.10;;;;;;5075155;28;20020;-15
2022/12/07 08:01:51;;;;;;;37.35;21.35;;;1.20;87.10;;;;;;5075093;28;20033;-17
2022/12/07 08:04:17;;;;;;;35.30;21.80;;;1.30;87.10;;;;;;5074807;28;20392;-17
2022/12/07 08:06:44;;;;;;;41.10;23.90;;;1.40;87.00;;;;;;5074482;28;20074;-17
2022/12/07 08:09:10;;;;;;;37.90;22.65;;;1.50;86.90;;;;;;5074626;28;20032;-17
2022/12/07 08:11:37;;;;;;;37.45;22.50;;;1.60;86.70;;;;;;5074416;28;20028;-18
2022/12/07 08:14:03;;;;;;;40.40;23.77;;;1.60;86.60;;;;;;5074698;28;20164;-16
2022/12/07 08:16:29;;;;;;;38.53;20.98;;;1.70;86.70;;;;;;5074700;28;20086;-18
2022/12/07 08:18:56;;;;;;;44.40;25.08;;;1.80;86.60;;;;;;5074016;28;20557;-18
2022/12/07 08:21:21;;;;;;;43.35;24.15;;;1.90;86.50;;;;;;5074443;28;20020;-18
2022/12/07 08:23:47;;;;;;;41.63;23.10;;;2.00;86.30;;;;;;5056688;28;20368;-17
2022/12/07 08:26:15;;;;;;;43.28;24.35;;;2.10;86.30;;;;;;5056154;28;20063;-18
2022/12/07 08:28:42;;;;;;;45.78;25.35;;;2.20;86.20;;;;;;5074176;28;20020;-17
2022/12/07 08:31:15;;;;;;;41.83;23.50;;;2.30;86.20;;;;;;5073826;28;20024;-17
2022/12/07 08:33:41;;;;;;;46.50;23.52;;;2.50;86.20;;;;;;5074644;28;20098;-16
2022/12/07 08:36:09;;;;;;;46.80;26.58;;;2.60;86.10;;;;;;5074166;28;20029;-16
2022/12/07 08:38:36;;;;;;;44.95;25.67;;;2.80;86.00;;;;;;5074020;28;20031;-17
2022/12/07 08:41:03;;;;;;;46.63;26.33;;;3.00;85.70;;;;;;5073603;28;20033;-16
2022/12/07 08:43:30;;;;;;;52.10;28.98;;;3.10;85.90;;;;;;5073805;28;20475;-16
2022/12/07 08:46:05;;;;;;;43.65;26.00;;;3.40;85.80;;;;;;5073673;28;20028;-18
2022/12/07 08:48:32;;;;;;;44.80;25.20;;;3.60;85.80;;;;;;5073563;28;20373;-15
2022/12/07 08:50:58;;;;;;;39.92;24.30;;;3.90;85.70;;;;;;5073321;28;20135;-16
2022/12/07 08:53:24;;;;;;;39.67;23.92;;;4.10;85.30;;;;;;5073508;28;20033;-18
2022/12/07 08:55:50;;;;;;;35.60;21.85;;;4.30;85.00;;;;;;5073350;28;20504;-17
2022/12/07 08:58:18;;;;;;;33.03;21.15;;;4.50;84.30;;;;;;5073400;28;20048;-16
2022/12/07 09:00:44;;;;;;;30.52;19.42;;;4.60;83.60;;;;;;5073458;28;20034;-16
2022/12/07 09:03:09;;;;;;;29.85;19.10;;;4.80;82.80;;;;;;5073138;28;20030;-17
2022/12/07 09:05:36;;;;;;;33.30;20.92;;;4.90;82.50;;;;;;5073275;28;20037;-15
2022/12/07 09:08:02;;;;;;;34.88;20.58;;;4.90;82.10;;;;;;5073174;28;20074;-15
2022/12/07 09:10:29;;;;;;;34.40;20.23;;;5.10;82.50;;;;;;5073461;28;20048;-15
2022/12/07 09:12:56;;;;;;;34.13;20.45;;;5.30;82.60;;;;;;5072758;28;20064;-15
2022/12/07 09:15:21;;;;;;;31.40;19.30;;;5.50;82.30;;;;;;5073419;28;20060;-16
2022/12/07 09:17:47;;;;;;;31.98;18.88;;;5.70;81.80;;;;;;5073434;28;20507;-18
2022/12/07 09:20:13;;;;;;;28.30;17.50;;;5.90;81.20;;;;;;5055121;28;20028;-17
2022/12/07 09:22:39;;;;;;;26.80;16.35;;;6.00;81.10;;;;;;5072831;28;20074;-17
2022/12/07 09:25:06;;;;;;;26.00;16.38;;;6.10;81.20;;;;;;5072811;28;20028;-17
2022/12/07 09:27:32;;;;;;;27.23;17.02;;;6.30;81.50;;;;;;5073268;28;20509;-16
2022/12/07 09:29:58;;;;;;;28.40;17.05;;;6.50;81.70;;;;;;5072815;28;20029;-14
2022/12/07 09:32:24;;;;;;;25.23;17.20;;;6.70;81.60;;;;;;5072745;28;20081;-17
2022/12/07 09:34:50;;;;;;;26.92;16.67;;;6.80;81.50;;;;;;5072624;28;20028;-15
2022/12/07 09:37:16;;;;;;;28.05;16.15;;;7.00;81.40;;;;;;5072715;28;20031;-17
2022/12/07 09:39:42;;;;;;;28.08;16.60;;;7.10;81.60;;;;;;5072742;28;20031;-16
2022/12/07 09:42:10;;;;;;;21.27;13.73;;;7.20;82.00;;;;;;5072996;28;20055;-16
2022/12/07 09:44:40;;;;;;;22.45;13.90;;;7.40;82.30;;;;;;5054736;28;20506;-14
2022/12/07 09:47:08;;;;;;;21.10;13.50;;;7.70;82.70;;;;;;5072618;28;20025;-15
2022/12/07 09:49:34;;;;;;;22.77;13.43;;;8.00;82.80;;;;;;5072924;28;20040;-14
2022/12/07 09:52:08;;;;;;;19.63;12.68;;;8.40;82.60;;;;;;5072398;28;20052;-14
2022/12/07 09:54:43;;;;;;;21.02;13.77;;;8.70;82.00;;;;;;5072985;28;20037;-16
2022/12/07 09:57:12;;;;;;;20.27;12.65;;;8.80;81.70;;;;;;5072730;28;20112;-15
2022/12/07 09:59:40;;;;;;;22.50;13.75;;;8.90;82.00;;;;;;5072529;28;20426;-16
2022/12/07 10:02:41;;;;;;;24.38;12.52;;;9.20;82.10;;;;;;5072305;28;20387;-17
2022/12/07 10:05:23;;;;;;;21.70;12.45;;;9.50;81.50;;;;;;5072678;28;20035;-16
2022/12/07 10:07:49;;;;;;;23.40;13.05;;;9.70;81.40;;;;;;5054461;28;20314;-16
2022/12/07 10:10:22;;;;;;;20.50;13.25;;;9.80;81.50;;;;;;5072702;28;20021;-16
2022/12/07 10:13:00;;;;;;;19.55;13.48;;;9.90;81.10;;;;;;5072296;28;20071;-17
2022/12/07 10:15:58;;;;;;;22.00;14.70;;;10.00;81.20;;;;;;5072428;28;20024;-16
2022/12/07 10:18:38;;;;;;;21.25;13.90;;;10.00;81.70;;;;;;4972313;28;20070;-15
2022/12/07 10:21:16;;;;;;;18.45;12.43;;;10.10;82.20;;;;;;4955257;28;20055;-16
2022/12/07 10:24:05;;;;;;;16.80;12.00;;;10.20;81.90;;;;;;4971715;28;20101;-16
2022/12/07 10:26:34;;;;;;;21.48;12.73;;;10.30;81.70;;;;;;4971659;28;20026;-16
2022/12/07 10:29:14;;;;;;;19.02;12.65;;;10.40;81.20;;;;;;4971458;28;20053;-18
2022/12/07 10:31:42;;;;;;;18.40;12.75;;;10.40;81.60;;;;;;4971544;28;20034;-15
2022/12/07 10:34:28;;;;;;;17.45;11.73;;;10.60;81.60;;;;;;4971499;28;20031;-14
2022/12/07 10:37:13;;;;;;;20.15;12.32;;;10.80;80.90;;;;;;4971249;28;20124;-16
2022/12/07 10:39:41;;;;;;;15.88;11.63;;;10.90;80.50;;;;;;4971502;28;20127;-14
2022/12/07 10:42:18;;;;;;;18.63;12.40;;;11.00;79.80;;;;;;4971395;28;20031;-14
2022/12/07 10:44:44;;;;;;;17.30;11.63;;;11.10;79.90;;;;;;4971502;28;20073;-14
2022/12/07 10:47:30;;;;;;;18.52;11.48;;;11.20;79.40;;;;;;4971303;28;20034;-15
2022/12/07 10:50:14;;;;;;;16.77;11.10;;;11.50;79.10;;;;;;4971613;28;20456;-15
2022/12/07 10:53:12;;;;;;;15.18;11.23;;;11.60;78.30;;;;;;4971021;28;20054;-15
2022/12/07 10:56:05;;;;;;;16.55;10.77;;;11.80;77.00;;;;;;5052103;28;20087;-14
2022/12/07 10:58:49;;;;;;;16.02;10.85;;;11.80;76.40;;;;;;5052130;28;20124;-16
2022/12/07 11:01:32;;;;;;;14.70;9.05;;;11.90;76.30;;;;;;5051857;28;20388;-15
2022/12/07 11:04:38;;;;;;;15.27;9.77;;;12.20;75.20;;;;;;5052261;28;20108;-16
2022/12/07 11:07:47;;;;;;;16.52;9.68;;;12.30;74.30;;;;;;4970946;28;20289;-13
2022/12/07 11:10:39;;;;;;;16.05;9.57;;;12.40;72.80;;;;;;4971344;28;20551;-12
2022/12/07 11:13:17;;;;;;;15.18;9.98;;;12.50;72.80;;;;;;4974213;28;20506;-14
2022/12/07 11:16:12;;;;;;;14.55;8.95;;;12.70;72.50;;;;;;4959295;28;20085;-12
2022/12/07 11:19:02;;;;;;;16.63;9.77;;;12.90;72.20;;;;;;4974673;28;20049;-13
2022/12/07 11:22:13;;;;;;;14.27;9.23;;;13.10;71.70;;;;;;4974512;28;20122;-13
2022/12/07 11:24:47;;;;;;;14.77;9.23;;;13.20;70.90;;;;;;4974655;28;20038;-16
2022/12/07 11:27:34;;;;;;;14.95;8.43;;;13.30;70.90;;;;;;4974542;28;20069;-14
2022/12/07 11:29:59;;;;;;;11.40;7.10;;;13.40;70.20;;;;;;4974619;28;20035;-15
2022/12/07 11:32:37;;;;;;;16.73;9.32;;;13.50;70.40;;;;;;4974262;28;20192;-15
2022/12/07 11:35:24;;;;;;;12.35;7.57;;;13.80;70.30;;;;;;4974426;28;20109;-14
2022/12/07 11:37:57;;;;;;;9.23;6.25;;;13.90;69.40;;;;;;4974084;28;20462;-16
2022/12/07 11:40:36;;;;;;;9.30;5.72;;;14.00;68.10;;;;;;4974321;28;20042;-14
2022/12/07 11:43:25;;;;;;;9.07;5.68;;;14.00;68.40;;;;;;5031748;28;20065;-14
2022/12/07 11:46:15;;;;;;;12.07;6.45;;;14.30;68.50;;;;;;5055315;28;20029;-16
2022/12/07 11:48:47;;;;;;;10.25;6.00;;;14.50;67.70;;;;;;5055128;28;20461;-17
2022/12/07 11:51:13;;;;;;;11.60;6.55;;;14.70;67.80;;;;;;5060923;28;20045;-15
2022/12/07 11:53:46;;;;;;;9.25;5.85;;;14.90;65.50;;;;;;5074827;28;20437;-13
2022/12/07 11:56:15;;;;;;;8.13;5.38;;;15.10;67.10;;;;;;5075171;28;20032;-15
2022/12/07 11:58:50;;;;;;;5.15;3.30;;;15.30;66.10;;;;;;5075089;28;20025;-15
2022/12/07 12:01:33;;;;;;;4.82;3.22;;;15.50;64.00;;;;;;5074829;28;20025;-16
2022/12/07 12:04:11;;;;;;;3.28;2.38;;;15.70;63.90;;;;;;5074557;28;20365;-17
2022/12/07 12:06:41;;;;;;;4.70;2.75;;;15.70;60.70;;;;;;5074729;28;20029;-16
2022/12/07 12:09:31;;;;;;;5.05;3.50;;;15.70;60.30;;;;;;5074562;28;20481;-15
2022/12/07 12:12:35;;;;;;;3.72;2.58;;;15.70;59.80;;;;;;5074925;28;20059;-15
2022/12/07 12:15:19;;;;;;;6.57;4.30;;;15.60;60.20;;;;;;5074198;28;20017;-15
2022/12/07 12:17:51;;;;;;;5.20;3.10;;;15.50;54.00;;;;;;5074577;28;20025;-14
2022/12/07 12:20:19;;;;;;;4.63;3.60;;;15.40;58.90;;;;;;5056404;28;20032;-16
2022/12/07 12:22:54;;;;;;;4.72;3.47;;;15.50;60.20;;;;;;5073812;28;20024;-14
2022/12/07 12:25:48;;;;;;;5.63;3.60;;;15.40;59.40;;;;;;5074278;28;20028;-15
2022/12/07 12:28:47;;;;;;;4.25;3.30;;;15.40;58.20;;;;;;5061033;28;20108;-14
2022/12/07 12:31:28;;;;;;;7.03;4.40;;;15.40;60.00;;;;;;5073926;28;20032;-14
2022/12/07 12:34:00;;;;;;;6.50;4.30;;;15.40;60.90;;;;;;5074016;28;20036;-13
2022/12/07 12:36:35;;;;;;;6.68;4.28;;;15.30;61.60;;;;;;5073870;28;20120;-14
2022/12/07 12:39:07;;;;;;;6.15;4.20;;;15.10;61.70;;;;;;5073989;28;20369;-16
2022/12/07 12:41:36;;;;;;;7.20;4.32;;;15.00;62.00;;;;;;5074889;28;20048;-15
2022/12/07 12:44:23;;;;;;;5.72;3.67;;;15.20;61.70;;;;;;5073808;28;20031;-16
2022/12/07 12:46:52;;;;;;;8.70;4.68;;;15.40;59.80;;;;;;5073335;28;20407;-15
2022/12/07 12:49:21;;;;;;;7.20;4.55;;;15.60;60.60;;;;;;5055869;28;20384;-15
2022/12/07 12:51:48;;;;;;;6.30;4.28;;;15.90;57.60;;;;;;5073203;28;20045;-16
2022/12/07 12:54:28;;;;;;;6.22;4.45;;;16.20;55.50;;;;;;5073526;28;20037;-16
2022/12/07 12:57:18;;;;;;;6.72;4.10;;;16.40;56.00;;;;;;5073343;28;20074;-15
2022/12/07 12:59:53;;;;;;;4.95;3.45;;;16.60;55.90;;;;;;5073503;28;20149;-13
2022/12/07 13:02:27;;;;;;;5.60;4.03;;;16.70;56.50;;;;;;5073469;28;20032;-16
2022/12/07 13:05:02;;;;;;;5.10;3.67;;;16.90;56.60;;;;;;5073083;28;20127;-14